Waddesdon, United Kingdom
Current Conditions -  °F | °C
As of 10:20 PM on Tuesday 25 Nov 2014 (Local Time) from EGTK Reporting Station
Light Rain Light Rain  
Wind Chill: 40°   Ceiling: 1900
Heat Index: 45°   Visibility: 5mi
Dew Point: 45°   Wind: 9mph
Humidity: 100%   Direction: 20°NNE
Pressure: 30"   Gusts: NA
Location:  51.85°N, 0.92°W
Report Text: EGTK 252220Z 02008KT 8000 -RA FEW007 BKN019 07/07 Q1016
Loading
Personal Weather Stations






























Interactive Weather Map New forecast layout! Learn more

10-Day Weather Forecast

Advertisements
Track Severe Weather on mobile